Pagrindinis puslapis
METAR-TAF:

METAR-TAF

Oro uostai :

Bakeu, Rumunija

platuma: 46-35N, ilguma: 026-58E, Aukštis: 184 m

Dabartinis oras

Ataskaita buvo paskelbta 24 minutes, ne 17:00 UTC
Vėjas 8 kt iš Vakarų, svyruoja nuo Pietvakarių ir Vakarų/Šiaurės Vakarų
Temperatūra 6°C
Drėgmė 36%
Slėgis 1017 hPa
Matomumas 10 km arba daugiau
nėra debesų žemiau 1500 m ir nėra kamuolinių lietaus debesų

METAR: LRBC 221700Z 26008KT 230V290 CAVOK 06/M08 Q1017

Laikas: 19:24 (17:24 UTC)

Prognozė

Ataskaita buvo paskelbta 3 valandos ir 24 minutes, ne 14:00 UTC
Prognozė galioja nuo 22 metu 15 UTC su 22 metu 24 UTC
Vėjas 10 kt iš Vakarų
Matomumas 10 km arba daugiau
nėra debesų žemiau 1500 m ir nėra kamuolinių lietaus debesų
Tapsmas
nuo 22 metu 18 UTC su 22 metu 20 UTC
Vėjas 12 kt iš Šiaurės/Šiaurės Vakarų

TAF: LRBC 221400Z 2215/2224 26010KT CAVOK BECMG 2218/2220 33012KT

Orai ataskaitas ir orų prognozės (METAR, TAF).

turimą stotys yra geltonos ir raudonos taškus žemėlapyje.

Perkelti pele per norėdami pamatyti stoties vardą.

Tada spustelėkite, norėdami matyti oro stebėjimo ir prognozės.

Norėdami pakeisti žemėlapį: spustelėkite ant žalios mygtukų su juodo kryžiaus žemyn,; žalią mygtuką su brūkšneliu, jei norite nutolinti; arba žalių rodyklių gretimoms žemėlapius.


METAR-TAF: